sensor_id;sensor_type;location;lat;lon;timestamp;P1;durP1;ratioP1;P2;durP2;ratioP2
10517;SDS011;5307;42.548;22.968;2023-04-24T00:01:12;8.50;;;6.90;;
10517;SDS011;5307;42.548;22.968;2023-04-24T00:03:40;13.55;;;7.30;;
10517;SDS011;5307;42.548;22.968;2023-04-24T00:06:07;9.18;;;7.47;;
10517;SDS011;5307;42.548;22.968;2023-04-24T00:08:35;9.52;;;6.90;;
10517;SDS011;5307;42.548;22.968;2023-04-24T00:11:02;12.20;;;8.02;;
10517;SDS011;5307;42.548;22.968;2023-04-24T00:13:29;12.13;;;7.82;;
10517;SDS011;5307;42.548;22.968;2023-04-24T00:15:56;14.07;;;7.47;;
10517;SDS011;5307;42.548;22.968;2023-04-24T00:18:22;11.07;;;7.55;;
10517;SDS011;5307;42.548;22.968;2023-04-24T00:20:49;12.85;;;8.63;;
10517;SDS011;5307;42.548;22.968;2023-04-24T00:23:16;12.60;;;7.93;;
10517;SDS011;5307;42.548;22.968;2023-04-24T00:25:44;11.30;;;8.02;;
10517;SDS011;5307;42.548;22.968;2023-04-24T00:28:11;10.40;;;7.50;;
10517;SDS011;5307;42.548;22.968;2023-04-24T00:30:38;13.18;;;7.68;;
10517;SDS011;5307;42.548;22.968;2023-04-24T00:33:05;17.25;;;7.88;;
10517;SDS011;5307;42.548;22.968;2023-04-24T00:35:31;15.68;;;6.97;;
10517;SDS011;5307;42.548;22.968;2023-04-24T00:37:58;18.20;;;8.48;;
10517;SDS011;5307;42.548;22.968;2023-04-24T00:40:25;12.25;;;7.65;;
10517;SDS011;5307;42.548;22.968;2023-04-24T00:42:54;16.95;;;9.35;;
10517;SDS011;5307;42.548;22.968;2023-04-24T00:45:21;12.43;;;7.85;;
10517;SDS011;5307;42.548;22.968;2023-04-24T00:47:48;14.88;;;8.65;;
10517;SDS011;5307;42.548;22.968;2023-04-24T00:50:18;16.83;;;8.02;;
10517;SDS011;5307;42.548;22.968;2023-04-24T00:52:46;11.77;;;8.35;;
10517;SDS011;5307;42.548;22.968;2023-04-24T00:55:13;14.18;;;8.63;;
10517;SDS011;5307;42.548;22.968;2023-04-24T00:57:40;16.67;;;8.93;;
10517;SDS011;5307;42.548;22.968;2023-04-24T01:00:09;15.55;;;8.65;;
10517;SDS011;5307;42.548;22.968;2023-04-24T01:02:37;12.68;;;8.73;;
10517;SDS011;5307;42.548;22.968;2023-04-24T01:05:09;16.70;;;9.07;;
10517;SDS011;5307;42.548;22.968;2023-04-24T01:07:36;14.48;;;9.05;;
10517;SDS011;5307;42.548;22.968;2023-04-24T01:10:05;17.30;;;9.30;;
10517;SDS011;5307;42.548;22.968;2023-04-24T01:12:33;22.13;;;10.30;;
10517;SDS011;5307;42.548;22.968;2023-04-24T01:15:00;21.40;;;10.45;;
10517;SDS011;5307;42.548;22.968;2023-04-24T01:17:30;21.02;;;10.52;;
10517;SDS011;5307;42.548;22.968;2023-04-24T01:19:57;16.80;;;10.18;;
10517;SDS011;5307;42.548;22.968;2023-04-24T01:22:26;19.10;;;10.27;;
10517;SDS011;5307;42.548;22.968;2023-04-24T01:24:53;15.73;;;10.48;;
10517;SDS011;5307;42.548;22.968;2023-04-24T01:27:20;18.73;;;9.60;;
10517;SDS011;5307;42.548;22.968;2023-04-24T01:29:46;18.95;;;9.70;;
10517;SDS011;5307;42.548;22.968;2023-04-24T01:32:14;22.13;;;10.65;;
10517;SDS011;5307;42.548;22.968;2023-04-24T01:34:41;19.55;;;10.05;;
10517;SDS011;5307;42.548;22.968;2023-04-24T01:37:10;18.83;;;9.95;;
10517;SDS011;5307;42.548;22.968;2023-04-24T01:39:38;20.55;;;10.68;;
10517;SDS011;5307;42.548;22.968;2023-04-24T01:42:05;18.73;;;10.07;;
10517;SDS011;5307;42.548;22.968;2023-04-24T01:44:33;17.75;;;10.60;;
10517;SDS011;5307;42.548;22.968;2023-04-24T01:47:00;17.05;;;9.95;;
10517;SDS011;5307;42.548;22.968;2023-04-24T01:49:27;22.83;;;10.50;;
10517;SDS011;5307;42.548;22.968;2023-04-24T01:51:54;17.17;;;10.30;;
10517;SDS011;5307;42.548;22.968;2023-04-24T01:54:21;18.73;;;9.65;;
10517;SDS011;5307;42.548;22.968;2023-04-24T01:56:49;17.77;;;10.25;;
10517;SDS011;5307;42.548;22.968;2023-04-24T01:59:16;14.80;;;10.55;;
10517;SDS011;5307;42.548;22.968;2023-04-24T02:01:43;15.65;;;9.85;;
10517;SDS011;5307;42.548;22.968;2023-04-24T02:04:10;13.82;;;10.07;;
10517;SDS011;5307;42.548;22.968;2023-04-24T02:06:37;14.95;;;10.25;;
10517;SDS011;5307;42.548;22.968;2023-04-24T02:09:03;17.00;;;9.45;;
10517;SDS011;5307;42.548;22.968;2023-04-24T02:11:31;11.25;;;9.15;;
10517;SDS011;5307;42.548;22.968;2023-04-24T02:13:59;14.05;;;8.85;;
10517;SDS011;5307;42.548;22.968;2023-04-24T02:16:27;14.55;;;9.40;;
10517;SDS011;5307;42.548;22.968;2023-04-24T02:18:55;11.93;;;9.13;;
10517;SDS011;5307;42.548;22.968;2023-04-24T02:21:22;12.23;;;8.75;;
10517;SDS011;5307;42.548;22.968;2023-04-24T02:23:49;14.75;;;8.57;;
10517;SDS011;5307;42.548;22.968;2023-04-24T02:26:15;12.15;;;8.90;;
10517;SDS011;5307;42.548;22.968;2023-04-24T02:28:43;15.07;;;9.27;;
10517;SDS011;5307;42.548;22.968;2023-04-24T02:31:11;13.65;;;9.00;;
10517;SDS011;5307;42.548;22.968;2023-04-24T02:33:38;16.00;;;9.68;;
10517;SDS011;5307;42.548;22.968;2023-04-24T02:36:05;17.52;;;10.13;;
10517;SDS011;5307;42.548;22.968;2023-04-24T02:38:32;14.23;;;9.18;;
10517;SDS011;5307;42.548;22.968;2023-04-24T02:40:58;15.80;;;8.45;;
10517;SDS011;5307;42.548;22.968;2023-04-24T02:43:25;18.95;;;10.30;;
10517;SDS011;5307;42.548;22.968;2023-04-24T02:45:52;18.65;;;9.85;;
10517;SDS011;5307;42.548;22.968;2023-04-24T02:48:20;16.52;;;9.80;;
10517;SDS011;5307;42.548;22.968;2023-04-24T02:50:47;14.75;;;9.55;;
10517;SDS011;5307;42.548;22.968;2023-04-24T02:53:14;19.45;;;10.18;;
10517;SDS011;5307;42.548;22.968;2023-04-24T02:55:41;15.90;;;10.05;;
10517;SDS011;5307;42.548;22.968;2023-04-24T02:58:07;20.98;;;10.18;;
10517;SDS011;5307;42.548;22.968;2023-04-24T03:00:35;14.00;;;10.00;;
10517;SDS011;5307;42.548;22.968;2023-04-24T03:03:02;18.02;;;9.95;;
10517;SDS011;5307;42.548;22.968;2023-04-24T03:05:35;21.48;;;9.75;;
10517;SDS011;5307;42.548;22.968;2023-04-24T03:08:01;19.92;;;10.40;;
10517;SDS011;5307;42.548;22.968;2023-04-24T03:10:28;20.58;;;10.52;;
10517;SDS011;5307;42.548;22.968;2023-04-24T03:12:56;22.30;;;10.13;;
10517;SDS011;5307;42.548;22.968;2023-04-24T03:15:23;13.35;;;9.68;;
10517;SDS011;5307;42.548;22.968;2023-04-24T03:17:49;31.00;;;10.77;;
10517;SDS011;5307;42.548;22.968;2023-04-24T03:20:17;18.80;;;9.88;;
10517;SDS011;5307;42.548;22.968;2023-04-24T03:22:45;12.55;;;8.63;;
10517;SDS011;5307;42.548;22.968;2023-04-24T03:25:12;15.73;;;8.25;;
10517;SDS011;5307;42.548;22.968;2023-04-24T03:27:39;13.85;;;9.55;;
10517;SDS011;5307;42.548;22.968;2023-04-24T03:30:07;12.00;;;8.93;;
10517;SDS011;5307;42.548;22.968;2023-04-24T03:32:34;15.52;;;9.98;;
10517;SDS011;5307;42.548;22.968;2023-04-24T03:35:01;18.00;;;8.80;;
10517;SDS011;5307;42.548;22.968;2023-04-24T03:37:29;15.27;;;8.32;;
10517;SDS011;5307;42.548;22.968;2023-04-24T03:39:57;11.10;;;9.13;;
10517;SDS011;5307;42.548;22.968;2023-04-24T03:42:23;16.40;;;9.10;;
10517;SDS011;5307;42.548;22.968;2023-04-24T03:44:52;19.88;;;8.48;;
10517;SDS011;5307;42.548;22.968;2023-04-24T03:47:19;16.10;;;9.27;;
10517;SDS011;5307;42.548;22.968;2023-04-24T03:49:46;14.57;;;9.27;;
10517;SDS011;5307;42.548;22.968;2023-04-24T03:52:13;13.43;;;8.27;;
10517;SDS011;5307;42.548;22.968;2023-04-24T03:54:39;16.10;;;8.75;;
10517;SDS011;5307;42.548;22.968;2023-04-24T03:57:07;14.73;;;8.77;;
10517;SDS011;5307;42.548;22.968;2023-04-24T03:59:34;13.32;;;8.38;;
10517;SDS011;5307;42.548;22.968;2023-04-24T04:02:01;13.65;;;9.70;;
10517;SDS011;5307;42.548;22.968;2023-04-24T04:04:28;17.83;;;9.55;;
10517;SDS011;5307;42.548;22.968;2023-04-24T04:06:54;17.70;;;8.88;;
10517;SDS011;5307;42.548;22.968;2023-04-24T04:09:21;17.08;;;8.95;;
10517;SDS011;5307;42.548;22.968;2023-04-24T04:11:48;23.75;;;9.00;;
10517;SDS011;5307;42.548;22.968;2023-04-24T04:14:16;17.58;;;9.02;;
10517;SDS011;5307;42.548;22.968;2023-04-24T04:16:43;22.52;;;9.32;;
10517;SDS011;5307;42.548;22.968;2023-04-24T04:19:10;30.02;;;10.05;;
10517;SDS011;5307;42.548;22.968;2023-04-24T04:21:37;23.33;;;10.23;;
10517;SDS011;5307;42.548;22.968;2023-04-24T04:24:04;21.08;;;9.30;;
10517;SDS011;5307;42.548;22.968;2023-04-24T04:26:32;21.42;;;9.73;;
10517;SDS011;5307;42.548;22.968;2023-04-24T04:29:00;19.30;;;9.68;;
10517;SDS011;5307;42.548;22.968;2023-04-24T04:31:28;23.80;;;10.25;;
10517;SDS011;5307;42.548;22.968;2023-04-24T04:33:55;19.48;;;10.60;;
10517;SDS011;5307;42.548;22.968;2023-04-24T04:36:22;22.50;;;9.80;;
10517;SDS011;5307;42.548;22.968;2023-04-24T04:38:50;20.33;;;10.05;;
10517;SDS011;5307;42.548;22.968;2023-04-24T04:41:16;20.10;;;10.73;;
10517;SDS011;5307;42.548;22.968;2023-04-24T04:43:43;22.48;;;11.13;;
10517;SDS011;5307;42.548;22.968;2023-04-24T04:46:11;16.00;;;10.55;;
10517;SDS011;5307;42.548;22.968;2023-04-24T04:48:39;21.15;;;11.23;;
10517;SDS011;5307;42.548;22.968;2023-04-24T04:51:06;27.60;;;11.55;;
10517;SDS011;5307;42.548;22.968;2023-04-24T04:53:33;19.20;;;12.52;;
10517;SDS011;5307;42.548;22.968;2023-04-24T04:56:00;23.23;;;11.98;;
10517;SDS011;5307;42.548;22.968;2023-04-24T04:58:26;19.23;;;10.82;;
10517;SDS011;5307;42.548;22.968;2023-04-24T05:00:53;22.85;;;10.70;;
10517;SDS011;5307;42.548;22.968;2023-04-24T05:03:22;17.88;;;9.73;;
10517;SDS011;5307;42.548;22.968;2023-04-24T05:05:50;17.10;;;9.27;;
10517;SDS011;5307;42.548;22.968;2023-04-24T05:08:17;14.73;;;8.85;;
10517;SDS011;5307;42.548;22.968;2023-04-24T05:10:44;22.95;;;10.18;;
10517;SDS011;5307;42.548;22.968;2023-04-24T05:13:10;21.00;;;10.13;;
10517;SDS011;5307;42.548;22.968;2023-04-24T05:15:38;17.25;;;8.85;;
10517;SDS011;5307;42.548;22.968;2023-04-24T05:18:05;11.23;;;7.97;;
10517;SDS011;5307;42.548;22.968;2023-04-24T05:20:32;18.85;;;8.55;;
10517;SDS011;5307;42.548;22.968;2023-04-24T05:23:00;15.73;;;7.88;;
10517;SDS011;5307;42.548;22.968;2023-04-24T05:25:27;14.77;;;8.13;;
10517;SDS011;5307;42.548;22.968;2023-04-24T05:27:53;17.23;;;7.60;;
10517;SDS011;5307;42.548;22.968;2023-04-24T05:30:20;13.68;;;7.65;;
10517;SDS011;5307;42.548;22.968;2023-04-24T05:32:47;12.80;;;8.23;;
10517;SDS011;5307;42.548;22.968;2023-04-24T05:35:15;10.25;;;7.75;;
10517;SDS011;5307;42.548;22.968;2023-04-24T05:37:44;16.85;;;8.32;;
10517;SDS011;5307;42.548;22.968;2023-04-24T05:40:12;13.18;;;8.23;;
10517;SDS011;5307;42.548;22.968;2023-04-24T05:42:39;12.73;;;7.25;;
10517;SDS011;5307;42.548;22.968;2023-04-24T05:45:07;12.50;;;7.70;;
10517;SDS011;5307;42.548;22.968;2023-04-24T05:47:39;18.00;;;8.00;;
10517;SDS011;5307;42.548;22.968;2023-04-24T05:50:06;12.20;;;7.43;;
10517;SDS011;5307;42.548;22.968;2023-04-24T05:52:34;14.98;;;8.15;;
10517;SDS011;5307;42.548;22.968;2023-04-24T05:55:00;15.32;;;7.80;;
10517;SDS011;5307;42.548;22.968;2023-04-24T05:57:29;16.02;;;9.25;;
10517;SDS011;5307;42.548;22.968;2023-04-24T05:59:56;13.60;;;8.38;;
10517;SDS011;5307;42.548;22.968;2023-04-24T06:02:22;12.43;;;6.85;;
10517;SDS011;5307;42.548;22.968;2023-04-24T06:04:49;8.75;;;7.55;;
10517;SDS011;5307;42.548;22.968;2023-04-24T06:07:16;14.13;;;8.38;;
10517;SDS011;5307;42.548;22.968;2023-04-24T06:09:43;13.68;;;7.22;;
10517;SDS011;5307;42.548;22.968;2023-04-24T06:12:10;11.93;;;7.90;;
10517;SDS011;5307;42.548;22.968;2023-04-24T06:14:38;14.05;;;7.68;;
10517;SDS011;5307;42.548;22.968;2023-04-24T06:17:05;13.27;;;7.45;;
10517;SDS011;5307;42.548;22.968;2023-04-24T06:19:32;13.90;;;7.30;;
10517;SDS011;5307;42.548;22.968;2023-04-24T06:21:59;11.32;;;6.93;;
10517;SDS011;5307;42.548;22.968;2023-04-24T06:24:27;11.23;;;7.05;;
10517;SDS011;5307;42.548;22.968;2023-04-24T06:26:53;10.73;;;7.30;;
10517;SDS011;5307;42.548;22.968;2023-04-24T06:29:21;11.82;;;7.57;;
10517;SDS011;5307;42.548;22.968;2023-04-24T06:31:50;11.15;;;6.90;;
10517;SDS011;5307;42.548;22.968;2023-04-24T06:34:16;10.85;;;6.95;;
10517;SDS011;5307;42.548;22.968;2023-04-24T06:36:43;13.05;;;7.03;;
10517;SDS011;5307;42.548;22.968;2023-04-24T06:39:10;7.82;;;6.43;;
10517;SDS011;5307;42.548;22.968;2023-04-24T06:41:37;13.77;;;7.05;;
10517;SDS011;5307;42.548;22.968;2023-04-24T06:44:05;10.77;;;7.28;;
10517;SDS011;5307;42.548;22.968;2023-04-24T06:46:31;12.32;;;7.35;;
10517;SDS011;5307;42.548;22.968;2023-04-24T06:49:00;10.25;;;7.30;;
10517;SDS011;5307;42.548;22.968;2023-04-24T06:51:26;15.70;;;8.23;;
10517;SDS011;5307;42.548;22.968;2023-04-24T06:53:54;10.45;;;6.90;;
10517;SDS011;5307;42.548;22.968;2023-04-24T06:56:21;12.40;;;6.35;;
10517;SDS011;5307;42.548;22.968;2023-04-24T06:58:48;7.85;;;6.50;;
10517;SDS011;5307;42.548;22.968;2023-04-24T07:01:15;11.70;;;6.65;;
10517;SDS011;5307;42.548;22.968;2023-04-24T07:03:41;9.20;;;6.55;;
10517;SDS011;5307;42.548;22.968;2023-04-24T07:06:10;8.35;;;6.72;;
10517;SDS011;5307;42.548;22.968;2023-04-24T07:08:37;9.38;;;6.95;;
10517;SDS011;5307;42.548;22.968;2023-04-24T07:11:04;13.63;;;6.57;;
10517;SDS011;5307;42.548;22.968;2023-04-24T07:13:31;13.25;;;8.10;;
10517;SDS011;5307;42.548;22.968;2023-04-24T07:16:00;10.70;;;6.20;;
10517;SDS011;5307;42.548;22.968;2023-04-24T07:18:27;9.32;;;6.38;;
10517;SDS011;5307;42.548;22.968;2023-04-24T07:20:54;8.65;;;5.85;;
10517;SDS011;5307;42.548;22.968;2023-04-24T07:23:22;14.82;;;7.70;;
10517;SDS011;5307;42.548;22.968;2023-04-24T07:25:49;10.82;;;6.65;;
10517;SDS011;5307;42.548;22.968;2023-04-24T07:28:16;17.48;;;6.55;;
10517;SDS011;5307;42.548;22.968;2023-04-24T07:30:43;11.45;;;6.15;;
10517;SDS011;5307;42.548;22.968;2023-04-24T07:33:10;10.85;;;6.32;;
10517;SDS011;5307;42.548;22.968;2023-04-24T07:35:38;9.93;;;5.05;;
10517;SDS011;5307;42.548;22.968;2023-04-24T07:38:05;5.68;;;4.75;;
10517;SDS011;5307;42.548;22.968;2023-04-24T07:40:33;7.35;;;5.45;;
10517;SDS011;5307;42.548;22.968;2023-04-24T07:43:00;6.60;;;5.20;;
10517;SDS011;5307;42.548;22.968;2023-04-24T07:45:27;10.05;;;4.93;;
10517;SDS011;5307;42.548;22.968;2023-04-24T07:47:54;6.13;;;5.45;;
10517;SDS011;5307;42.548;22.968;2023-04-24T07:50:20;8.10;;;5.03;;
10517;SDS011;5307;42.548;22.968;2023-04-24T07:52:48;10.38;;;5.82;;
10517;SDS011;5307;42.548;22.968;2023-04-24T07:55:14;11.82;;;6.22;;
10517;SDS011;5307;42.548;22.968;2023-04-24T07:57:43;6.55;;;5.50;;
10517;SDS011;5307;42.548;22.968;2023-04-24T08:00:10;8.20;;;5.60;;
10517;SDS011;5307;42.548;22.968;2023-04-24T08:02:37;7.20;;;5.53;;
10517;SDS011;5307;42.548;22.968;2023-04-24T08:05:04;7.28;;;5.25;;
10517;SDS011;5307;42.548;22.968;2023-04-24T08:07:32;7.47;;;4.93;;
10517;SDS011;5307;42.548;22.968;2023-04-24T08:10:00;8.02;;;4.95;;
10517;SDS011;5307;42.548;22.968;2023-04-24T08:12:28;7.65;;;5.28;;
10517;SDS011;5307;42.548;22.968;2023-04-24T08:14:58;6.03;;;4.60;;
10517;SDS011;5307;42.548;22.968;2023-04-24T08:17:25;5.30;;;4.22;;
10517;SDS011;5307;42.548;22.968;2023-04-24T08:19:53;6.82;;;4.90;;
10517;SDS011;5307;42.548;22.968;2023-04-24T08:22:26;5.30;;;4.80;;
10517;SDS011;5307;42.548;22.968;2023-04-24T08:24:53;5.78;;;5.18;;
10517;SDS011;5307;42.548;22.968;2023-04-24T08:27:21;6.45;;;4.57;;
10517;SDS011;5307;42.548;22.968;2023-04-24T08:29:48;7.60;;;4.95;;
10517;SDS011;5307;42.548;22.968;2023-04-24T08:32:16;4.95;;;4.03;;
10517;SDS011;5307;42.548;22.968;2023-04-24T08:34:43;9.40;;;4.85;;
10517;SDS011;5307;42.548;22.968;2023-04-24T08:37:10;5.70;;;3.67;;
10517;SDS011;5307;42.548;22.968;2023-04-24T08:39:37;6.78;;;4.05;;
10517;SDS011;5307;42.548;22.968;2023-04-24T08:42:04;16.13;;;8.82;;
10517;SDS011;5307;42.548;22.968;2023-04-24T08:44:33;5.13;;;4.10;;
10517;SDS011;5307;42.548;22.968;2023-04-24T08:47:00;7.70;;;5.40;;
10517;SDS011;5307;42.548;22.968;2023-04-24T08:49:30;8.50;;;4.88;;
10517;SDS011;5307;42.548;22.968;2023-04-24T08:51:57;7.80;;;4.47;;
10517;SDS011;5307;42.548;22.968;2023-04-24T08:54:25;6.38;;;4.40;;
10517;SDS011;5307;42.548;22.968;2023-04-24T08:56:53;9.30;;;4.65;;
10517;SDS011;5307;42.548;22.968;2023-04-24T08:59:22;3.92;;;3.47;;
10517;SDS011;5307;42.548;22.968;2023-04-24T09:01:49;5.40;;;4.00;;
10517;SDS011;5307;42.548;22.968;2023-04-24T09:04:18;9.57;;;4.45;;
10517;SDS011;5307;42.548;22.968;2023-04-24T09:06:51;8.90;;;4.57;;
10517;SDS011;5307;42.548;22.968;2023-04-24T09:09:21;5.43;;;3.85;;
10517;SDS011;5307;42.548;22.968;2023-04-24T09:11:49;6.68;;;4.82;;
10517;SDS011;5307;42.548;22.968;2023-04-24T09:14:16;6.13;;;4.38;;
10517;SDS011;5307;42.548;22.968;2023-04-24T09:16:43;10.18;;;4.30;;
10517;SDS011;5307;42.548;22.968;2023-04-24T09:19:11;5.82;;;4.63;;
10517;SDS011;5307;42.548;22.968;2023-04-24T09:21:37;8.95;;;4.68;;
10517;SDS011;5307;42.548;22.968;2023-04-24T09:24:14;4.63;;;4.22;;
10517;SDS011;5307;42.548;22.968;2023-04-24T09:26:42;7.05;;;4.22;;
10517;SDS011;5307;42.548;22.968;2023-04-24T09:29:14;5.75;;;4.22;;
10517;SDS011;5307;42.548;22.968;2023-04-24T09:31:41;7.57;;;4.38;;
10517;SDS011;5307;42.548;22.968;2023-04-24T09:34:08;7.65;;;4.30;;
10517;SDS011;5307;42.548;22.968;2023-04-24T09:36:36;4.20;;;3.80;;
10517;SDS011;5307;42.548;22.968;2023-04-24T09:39:04;4.55;;;4.03;;
10517;SDS011;5307;42.548;22.968;2023-04-24T09:41:34;5.60;;;3.70;;
10517;SDS011;5307;42.548;22.968;2023-04-24T09:44:10;7.05;;;4.30;;
10517;SDS011;5307;42.548;22.968;2023-04-24T09:46:38;7.07;;;3.80;;
10517;SDS011;5307;42.548;22.968;2023-04-24T09:49:08;9.38;;;3.67;;
10517;SDS011;5307;42.548;22.968;2023-04-24T09:51:36;3.63;;;3.17;;
10517;SDS011;5307;42.548;22.968;2023-04-24T09:54:04;4.68;;;3.60;;
10517;SDS011;5307;42.548;22.968;2023-04-24T09:56:43;4.50;;;3.70;;
10517;SDS011;5307;42.548;22.968;2023-04-24T09:59:11;4.15;;;3.28;;
10517;SDS011;5307;42.548;22.968;2023-04-24T10:01:38;6.20;;;3.35;;
10517;SDS011;5307;42.548;22.968;2023-04-24T10:04:14;5.65;;;3.30;;
10517;SDS011;5307;42.548;22.968;2023-04-24T10:06:43;6.07;;;3.60;;
10517;SDS011;5307;42.548;22.968;2023-04-24T10:09:10;3.80;;;3.50;;
10517;SDS011;5307;42.548;22.968;2023-04-24T10:11:39;6.57;;;4.22;;
10517;SDS011;5307;42.548;22.968;2023-04-24T10:14:10;6.72;;;3.95;;
10517;SDS011;5307;42.548;22.968;2023-04-24T10:16:39;5.53;;;3.88;;
10517;SDS011;5307;42.548;22.968;2023-04-24T10:19:06;8.70;;;4.22;;
10517;SDS011;5307;42.548;22.968;2023-04-24T10:21:34;8.52;;;4.32;;
10517;SDS011;5307;42.548;22.968;2023-04-24T10:24:03;7.40;;;4.68;;
10517;SDS011;5307;42.548;22.968;2023-04-24T10:26:32;8.90;;;4.60;;
10517;SDS011;5307;42.548;22.968;2023-04-24T10:29:01;5.80;;;4.45;;
10517;SDS011;5307;42.548;22.968;2023-04-24T10:31:30;6.85;;;4.70;;
10517;SDS011;5307;42.548;22.968;2023-04-24T10:33:58;5.95;;;4.78;;
10517;SDS011;5307;42.548;22.968;2023-04-24T10:36:27;7.20;;;4.25;;
10517;SDS011;5307;42.548;22.968;2023-04-24T10:38:58;7.35;;;4.13;;
10517;SDS011;5307;42.548;22.968;2023-04-24T10:41:29;6.57;;;5.63;;
10517;SDS011;5307;42.548;22.968;2023-04-24T10:44:08;5.68;;;4.40;;
10517;SDS011;5307;42.548;22.968;2023-04-24T10:46:44;5.88;;;4.80;;
10517;SDS011;5307;42.548;22.968;2023-04-24T10:49:12;7.28;;;5.00;;
10517;SDS011;5307;42.548;22.968;2023-04-24T10:54:34;9.90;;;4.43;;
10517;SDS011;5307;42.548;22.968;2023-04-24T11:02:42;12.90;;;4.85;;
10517;SDS011;5307;42.548;22.968;2023-04-24T11:05:14;8.15;;;5.20;;
10517;SDS011;5307;42.548;22.968;2023-04-24T11:10:38;7.13;;;4.70;;
10517;SDS011;5307;42.548;22.968;2023-04-24T11:13:06;6.38;;;4.85;;
10517;SDS011;5307;42.548;22.968;2023-04-24T11:15:35;8.07;;;5.20;;
10517;SDS011;5307;42.548;22.968;2023-04-24T11:18:02;12.32;;;6.00;;
10517;SDS011;5307;42.548;22.968;2023-04-24T11:20:29;7.93;;;4.80;;
10517;SDS011;5307;42.548;22.968;2023-04-24T11:22:57;9.80;;;5.03;;
10517;SDS011;5307;42.548;22.968;2023-04-24T11:25:30;4.38;;;3.95;;
10517;SDS011;5307;42.548;22.968;2023-04-24T11:28:03;7.13;;;4.30;;
10517;SDS011;5307;42.548;22.968;2023-04-24T11:30:31;11.90;;;5.40;;
10517;SDS011;5307;42.548;22.968;2023-04-24T11:33:03;7.75;;;5.97;;
10517;SDS011;5307;42.548;22.968;2023-04-24T11:35:34;11.00;;;5.30;;
10517;SDS011;5307;42.548;22.968;2023-04-24T11:38:06;8.82;;;5.63;;
10517;SDS011;5307;42.548;22.968;2023-04-24T11:40:33;6.80;;;5.32;;
10517;SDS011;5307;42.548;22.968;2023-04-24T11:45:55;6.68;;;4.57;;
10517;SDS011;5307;42.548;22.968;2023-04-24T11:48:27;14.45;;;5.88;;
10517;SDS011;5307;42.548;22.968;2023-04-24T11:50:54;5.50;;;4.93;;
10517;SDS011;5307;42.548;22.968;2023-04-24T11:53:21;10.68;;;4.78;;
10517;SDS011;5307;42.548;22.968;2023-04-24T11:55:48;6.70;;;5.00;;
10517;SDS011;5307;42.548;22.968;2023-04-24T11:58:15;8.02;;;5.65;;
10517;SDS011;5307;42.548;22.968;2023-04-24T12:00:55;8.15;;;5.70;;
10517;SDS011;5307;42.548;22.968;2023-04-24T12:03:23;14.20;;;5.68;;
10517;SDS011;5307;42.548;22.968;2023-04-24T12:05:51;7.70;;;4.60;;
10517;SDS011;5307;42.548;22.968;2023-04-24T12:08:26;5.97;;;4.38;;
10517;SDS011;5307;42.548;22.968;2023-04-24T12:10:53;8.23;;;5.13;;
10517;SDS011;5307;42.548;22.968;2023-04-24T12:13:21;6.90;;;4.35;;
10517;SDS011;5307;42.548;22.968;2023-04-24T12:15:49;5.10;;;4.60;;
10517;SDS011;5307;42.548;22.968;2023-04-24T12:18:16;9.10;;;4.60;;
10517;SDS011;5307;42.548;22.968;2023-04-24T12:20:43;5.97;;;4.93;;
10517;SDS011;5307;42.548;22.968;2023-04-24T12:23:11;7.63;;;5.03;;
10517;SDS011;5307;42.548;22.968;2023-04-24T12:25:38;7.53;;;5.68;;
10517;SDS011;5307;42.548;22.968;2023-04-24T12:28:09;10.20;;;6.28;;
10517;SDS011;5307;42.548;22.968;2023-04-24T12:30:39;6.43;;;5.47;;
10517;SDS011;5307;42.548;22.968;2023-04-24T12:33:06;8.88;;;5.70;;
10517;SDS011;5307;42.548;22.968;2023-04-24T12:35:33;6.30;;;5.65;;
10517;SDS011;5307;42.548;22.968;2023-04-24T12:38:07;7.25;;;5.68;;
10517;SDS011;5307;42.548;22.968;2023-04-24T12:40:36;8.82;;;5.82;;
10517;SDS011;5307;42.548;22.968;2023-04-24T12:43:12;5.88;;;5.22;;
10517;SDS011;5307;42.548;22.968;2023-04-24T12:45:40;11.13;;;4.85;;
10517;SDS011;5307;42.548;22.968;2023-04-24T12:48:07;7.10;;;5.32;;
10517;SDS011;5307;42.548;22.968;2023-04-24T12:50:34;6.80;;;5.00;;
10517;SDS011;5307;42.548;22.968;2023-04-24T12:53:01;7.35;;;5.28;;
10517;SDS011;5307;42.548;22.968;2023-04-24T12:55:27;8.27;;;4.53;;
10517;SDS011;5307;42.548;22.968;2023-04-24T12:57:55;6.50;;;4.68;;
10517;SDS011;5307;42.548;22.968;2023-04-24T13:00:23;5.30;;;4.72;;
10517;SDS011;5307;42.548;22.968;2023-04-24T13:02:50;6.22;;;5.32;;
10517;SDS011;5307;42.548;22.968;2023-04-24T13:05:17;6.93;;;4.63;;
10517;SDS011;5307;42.548;22.968;2023-04-24T13:07:44;6.32;;;3.95;;
10517;SDS011;5307;42.548;22.968;2023-04-24T13:10:10;8.32;;;4.72;;
10517;SDS011;5307;42.548;22.968;2023-04-24T13:12:38;6.80;;;4.57;;
10517;SDS011;5307;42.548;22.968;2023-04-24T13:15:07;6.63;;;4.18;;
10517;SDS011;5307;42.548;22.968;2023-04-24T13:17:34;10.23;;;5.38;;
10517;SDS011;5307;42.548;22.968;2023-04-24T13:20:01;5.40;;;4.90;;
10517;SDS011;5307;42.548;22.968;2023-04-24T13:22:28;5.72;;;4.25;;
10517;SDS011;5307;42.548;22.968;2023-04-24T13:24:55;6.20;;;4.72;;
10517;SDS011;5307;42.548;22.968;2023-04-24T13:27:22;8.35;;;4.55;;
10517;SDS011;5307;42.548;22.968;2023-04-24T13:29:49;5.65;;;4.40;;
10517;SDS011;5307;42.548;22.968;2023-04-24T13:32:20;6.70;;;4.57;;
10517;SDS011;5307;42.548;22.968;2023-04-24T13:34:46;6.40;;;4.53;;
10517;SDS011;5307;42.548;22.968;2023-04-24T13:37:13;5.22;;;3.60;;
10517;SDS011;5307;42.548;22.968;2023-04-24T13:39:40;13.93;;;4.65;;
10517;SDS011;5307;42.548;22.968;2023-04-24T13:42:07;7.30;;;4.25;;
10517;SDS011;5307;42.548;22.968;2023-04-24T13:44:34;5.28;;;3.95;;
10517;SDS011;5307;42.548;22.968;2023-04-24T13:47:01;6.95;;;5.05;;
10517;SDS011;5307;42.548;22.968;2023-04-24T13:49:30;5.88;;;4.32;;
10517;SDS011;5307;42.548;22.968;2023-04-24T13:51:56;6.82;;;3.85;;
10517;SDS011;5307;42.548;22.968;2023-04-24T13:54:23;7.10;;;4.43;;
10517;SDS011;5307;42.548;22.968;2023-04-24T13:56:50;7.00;;;4.25;;
10517;SDS011;5307;42.548;22.968;2023-04-24T13:59:18;5.35;;;4.18;;
10517;SDS011;5307;42.548;22.968;2023-04-24T14:01:46;5.35;;;4.40;;
10517;SDS011;5307;42.548;22.968;2023-04-24T14:04:14;10.23;;;4.22;;
10517;SDS011;5307;42.548;22.968;2023-04-24T14:06:42;7.28;;;4.30;;
10517;SDS011;5307;42.548;22.968;2023-04-24T14:09:09;5.75;;;4.32;;
10517;SDS011;5307;42.548;22.968;2023-04-24T14:11:37;9.00;;;3.60;;
10517;SDS011;5307;42.548;22.968;2023-04-24T14:14:04;5.43;;;2.65;;
10517;SDS011;5307;42.548;22.968;2023-04-24T14:16:32;3.22;;;2.55;;
10517;SDS011;5307;42.548;22.968;2023-04-24T14:19:00;6.03;;;2.75;;
10517;SDS011;5307;42.548;22.968;2023-04-24T14:21:26;5.55;;;2.88;;
10517;SDS011;5307;42.548;22.968;2023-04-24T14:23:54;4.88;;;2.90;;
10517;SDS011;5307;42.548;22.968;2023-04-24T14:26:21;7.00;;;3.55;;
10517;SDS011;5307;42.548;22.968;2023-04-24T14:28:49;6.13;;;3.15;;
10517;SDS011;5307;42.548;22.968;2023-04-24T14:31:18;6.57;;;4.38;;
10517;SDS011;5307;42.548;22.968;2023-04-24T14:33:45;8.25;;;4.72;;
10517;SDS011;5307;42.548;22.968;2023-04-24T14:36:11;9.45;;;4.68;;
10517;SDS011;5307;42.548;22.968;2023-04-24T14:38:38;8.52;;;4.97;;
10517;SDS011;5307;42.548;22.968;2023-04-24T14:41:06;8.63;;;4.88;;
10517;SDS011;5307;42.548;22.968;2023-04-24T14:43:35;10.45;;;5.90;;
10517;SDS011;5307;42.548;22.968;2023-04-24T14:46:02;12.30;;;5.13;;
10517;SDS011;5307;42.548;22.968;2023-04-24T14:48:29;12.63;;;6.22;;
10517;SDS011;5307;42.548;22.968;2023-04-24T14:50:56;15.88;;;6.88;;
10517;SDS011;5307;42.548;22.968;2023-04-24T14:53:23;8.13;;;4.50;;
10517;SDS011;5307;42.548;22.968;2023-04-24T14:55:50;7.97;;;3.88;;